createdAt,value
2019-03-25T00:01:04.778Z,18.27
2019-03-25T00:03:33.949Z,16.12
2019-03-25T00:06:03.079Z,19.32
2019-03-25T00:08:32.214Z,14.13
2019-03-25T00:11:01.300Z,16.20
2019-03-25T00:13:30.418Z,15.23
2019-03-25T00:15:59.893Z,14.65
2019-03-25T00:18:28.979Z,10.30
2019-03-25T00:20:58.075Z,14.98
2019-03-25T00:23:27.460Z,13.62
2019-03-25T00:25:56.557Z,15.43
2019-03-25T00:28:25.668Z,14.65
2019-03-25T00:30:54.756Z,15.18
2019-03-25T00:33:23.872Z,16.90
2019-03-25T00:35:52.973Z,14.33
2019-03-25T00:38:24.596Z,18.92
2019-03-25T00:40:54.962Z,11.73
2019-03-25T00:43:26.208Z,12.03
2019-03-25T00:45:55.291Z,16.37
2019-03-25T00:48:24.723Z,13.13
2019-03-25T00:50:54.183Z,8.45
2019-03-25T00:53:23.339Z,16.45
2019-03-25T00:55:52.435Z,12.78
2019-03-25T00:58:21.553Z,14.20
2019-03-25T01:00:50.727Z,16.45
2019-03-25T01:03:19.768Z,9.73
2019-03-25T01:05:49.190Z,16.02
2019-03-25T01:08:18.298Z,13.80
2019-03-25T01:10:48.067Z,10.75
2019-03-25T01:13:17.948Z,19.45
2019-03-25T01:15:50.153Z,10.63
2019-03-25T01:18:19.977Z,10.75
2019-03-25T01:20:49.395Z,13.48
2019-03-25T01:23:19.179Z,12.63
2019-03-25T01:25:48.285Z,11.88
2019-03-25T01:28:17.366Z,12.60
2019-03-25T01:30:46.496Z,15.15
2019-03-25T01:33:15.978Z,14.78
2019-03-25T01:35:46.198Z,11.35
2019-03-25T01:38:18.807Z,12.90
2019-03-25T01:40:47.912Z,9.43
2019-03-25T01:43:20.475Z,13.83
2019-03-25T01:45:50.307Z,15.38
2019-03-25T01:48:19.781Z,19.15
2019-03-25T01:50:49.222Z,13.55
2019-03-25T01:53:18.390Z,15.48
2019-03-25T01:55:47.784Z,14.07
2019-03-25T01:58:16.883Z,12.05
2019-03-25T02:00:49.571Z,12.93
2019-03-25T02:03:18.685Z,12.23
2019-03-25T02:05:47.776Z,12.33
2019-03-25T02:08:17.185Z,14.03
2019-03-25T02:10:46.330Z,19.92
2019-03-25T02:13:15.416Z,15.05
2019-03-25T02:15:44.589Z,15.85
2019-03-25T02:18:13.637Z,15.50
2019-03-25T02:20:44.564Z,12.33
2019-03-25T02:23:13.741Z,15.40
2019-03-25T02:25:43.190Z,11.78
2019-03-25T02:28:12.305Z,12.35
2019-03-25T02:30:42.111Z,14.23
2019-03-25T02:33:14.319Z,11.35
2019-03-25T02:35:43.718Z,16.82
2019-03-25T02:38:12.790Z,13.22
2019-03-25T02:40:41.893Z,11.83
2019-03-25T02:43:11.702Z,17.30
2019-03-25T02:45:41.535Z,17.30
2019-03-25T02:48:11.292Z,13.80
2019-03-25T02:50:40.423Z,15.63
2019-03-25T02:53:09.871Z,17.35
2019-03-25T02:55:41.900Z,16.65
2019-03-25T02:58:10.125Z,14.33
2019-03-25T03:00:41.537Z,13.30
2019-03-25T03:03:10.620Z,15.40
2019-03-25T03:05:43.108Z,16.25
2019-03-25T03:08:12.220Z,22.82
2019-03-25T03:10:41.671Z,18.02
2019-03-25T03:13:10.790Z,17.57
2019-03-25T03:15:39.894Z,19.42
2019-03-25T03:18:08.991Z,20.75
2019-03-25T03:20:38.104Z,16.10
2019-03-25T03:23:10.649Z,21.73
2019-03-25T03:25:55.699Z,20.62
2019-03-25T03:28:10.942Z,18.90
2019-03-25T03:30:40.402Z,19.95
2019-03-25T03:33:09.509Z,15.38
2019-03-25T03:35:38.600Z,23.02
2019-03-25T03:38:07.706Z,19.02
2019-03-25T03:40:37.541Z,18.40
2019-03-25T03:43:06.679Z,18.70
2019-03-25T03:45:35.795Z,18.35
2019-03-25T03:48:04.921Z,14.65
2019-03-25T03:50:34.342Z,18.02
2019-03-25T03:53:06.483Z,18.10
2019-03-25T03:55:35.609Z,18.67
2019-03-25T03:58:07.531Z,18.70
2019-03-25T04:00:38.673Z,17.92
2019-03-25T04:03:07.746Z,19.77
2019-03-25T04:05:38.803Z,16.82
2019-03-25T04:08:07.926Z,20.85
2019-03-25T04:10:38.400Z,17.35
2019-03-25T04:13:07.476Z,26.00
2019-03-25T04:15:36.574Z,27.27
2019-03-25T04:18:05.641Z,17.20
2019-03-25T04:20:35.476Z,21.20
2019-03-25T04:23:05.289Z,19.82
2019-03-25T04:25:36.645Z,16.17
2019-03-25T04:28:08.401Z,23.67
2019-03-25T04:30:37.513Z,24.35
2019-03-25T04:33:06.946Z,21.95
2019-03-25T04:35:36.128Z,13.05
2019-03-25T04:38:07.225Z,18.20
2019-03-25T04:40:36.583Z,14.13
2019-03-25T04:43:05.690Z,17.85
2019-03-25T04:45:34.823Z,27.77
2019-03-25T04:48:03.962Z,15.50
2019-03-25T04:50:33.699Z,13.53
2019-03-25T04:53:02.797Z,12.18
2019-03-25T04:55:31.894Z,9.78
2019-03-25T04:58:00.988Z,9.48
2019-03-25T05:00:37.092Z,7.20
2019-03-25T05:03:06.211Z,8.73
2019-03-25T05:05:36.197Z,13.38
2019-03-25T05:08:08.070Z,6.78
2019-03-25T05:10:40.369Z,11.73
2019-03-25T05:13:09.458Z,6.25
2019-03-25T05:15:38.532Z,5.40
2019-03-25T05:18:07.985Z,5.62
2019-03-25T05:20:40.169Z,8.18
2019-03-25T05:23:09.278Z,8.05
2019-03-25T05:25:39.076Z,4.70
2019-03-25T05:28:08.183Z,11.57
2019-03-25T05:30:37.371Z,8.50
2019-03-25T05:33:07.106Z,7.58
2019-03-25T05:35:36.504Z,8.15
2019-03-25T05:38:05.647Z,7.22
2019-03-25T05:40:35.384Z,5.67
2019-03-25T05:43:04.488Z,6.15
2019-03-25T05:45:33.915Z,11.97
2019-03-25T05:48:03.012Z,6.22
2019-03-25T05:50:33.069Z,9.85
2019-03-25T05:53:02.157Z,6.72
2019-03-25T05:55:32.528Z,5.83
2019-03-25T05:58:01.618Z,7.45
2019-03-25T06:00:33.571Z,10.15
2019-03-25T06:03:03.090Z,10.50
2019-03-25T06:05:32.176Z,7.08
2019-03-25T06:08:07.864Z,5.03
2019-03-25T06:10:37.256Z,12.43
2019-03-25T06:13:07.971Z,7.25
2019-03-25T06:15:37.802Z,5.08
2019-03-25T06:18:06.910Z,8.45
2019-03-25T06:20:36.033Z,7.40
2019-03-25T06:23:05.121Z,8.65
2019-03-25T06:25:34.485Z,9.93
2019-03-25T06:28:03.616Z,7.10
2019-03-25T06:30:32.686Z,9.85
2019-03-25T06:33:11.955Z,8.60
2019-03-25T06:35:36.799Z,5.75
2019-03-25T06:38:06.200Z,8.65
2019-03-25T06:40:35.314Z,9.93
2019-03-25T06:43:04.468Z,7.20
2019-03-25T06:45:33.564Z,19.10
2019-03-25T06:48:02.655Z,10.23
2019-03-25T06:50:36.998Z,10.13
2019-03-25T06:53:06.453Z,10.05
2019-03-25T06:55:35.837Z,7.47
2019-03-25T06:58:05.318Z,9.70
2019-03-25T07:00:34.433Z,10.70
2019-03-25T07:03:04.249Z,9.08
2019-03-25T07:05:34.406Z,10.05
2019-03-25T07:08:03.426Z,9.63
2019-03-25T07:10:36.549Z,9.00
2019-03-25T07:13:07.844Z,8.05
2019-03-25T07:15:40.170Z,7.35
2019-03-25T07:18:09.473Z,9.50
2019-03-25T07:20:39.530Z,10.98
2019-03-25T07:23:08.702Z,7.00
2019-03-25T07:25:38.301Z,12.80
2019-03-25T07:28:09.444Z,12.75
2019-03-25T07:30:39.307Z,7.47
2019-03-25T07:33:11.941Z,8.18
2019-03-25T07:35:41.008Z,8.95
2019-03-25T07:38:12.025Z,9.60
2019-03-25T07:40:41.108Z,13.05
2019-03-25T07:43:10.219Z,19.37
2019-03-25T07:45:39.676Z,12.05
2019-03-25T07:48:09.144Z,16.65
2019-03-25T07:50:38.295Z,11.25
2019-03-25T07:53:07.399Z,16.48
2019-03-25T07:55:38.704Z,12.53
2019-03-25T07:58:08.211Z,26.55
2019-03-25T08:00:37.932Z,20.37
2019-03-25T08:03:10.278Z,17.45
2019-03-25T08:05:39.385Z,13.03
2019-03-25T08:08:10.121Z,13.55
2019-03-25T08:10:39.801Z,15.10
2019-03-25T08:13:09.053Z,16.75
2019-03-25T08:15:38.470Z,18.00
2019-03-25T08:18:07.863Z,13.98
2019-03-25T08:20:37.871Z,11.60
2019-03-25T08:23:07.526Z,12.85
2019-03-25T08:25:36.630Z,13.80
2019-03-25T08:28:06.054Z,13.25
2019-03-25T08:30:35.490Z,11.30
2019-03-25T08:33:04.891Z,13.53
2019-03-25T08:35:34.419Z,20.88
2019-03-25T08:38:05.286Z,13.93
2019-03-25T08:40:35.450Z,16.50
2019-03-25T08:43:04.808Z,10.48
2019-03-25T08:45:34.229Z,14.70
2019-03-25T08:48:04.690Z,9.55
2019-03-25T08:50:34.123Z,13.68
2019-03-25T08:53:03.221Z,10.70
2019-03-25T08:55:33.232Z,12.58
2019-03-25T08:58:11.627Z,10.40
2019-03-25T09:00:33.869Z,8.35
2019-03-25T09:03:03.271Z,6.85
2019-03-25T09:05:35.723Z,13.08
2019-03-25T09:08:07.058Z,10.98
2019-03-25T09:10:36.440Z,8.93
2019-03-25T09:13:06.282Z,6.90
2019-03-25T09:15:35.358Z,7.62
2019-03-25T09:18:04.530Z,7.05
2019-03-25T09:20:33.630Z,7.25
2019-03-25T09:23:02.719Z,6.80
2019-03-25T09:25:31.918Z,5.58
2019-03-25T09:28:01.015Z,6.47
2019-03-25T09:31:12.054Z,9.28
2019-03-25T09:33:42.763Z,9.25
2019-03-25T09:36:12.234Z,5.50
2019-03-25T09:38:41.386Z,9.10
2019-03-25T09:41:10.520Z,5.40
2019-03-25T09:43:42.728Z,7.30
2019-03-25T09:46:11.796Z,5.22
2019-03-25T09:48:41.253Z,10.50
2019-03-25T09:51:10.337Z,4.03
2019-03-25T09:53:40.836Z,4.45
2019-03-25T09:56:15.851Z,7.83
2019-03-25T09:58:44.959Z,12.60
2019-03-25T10:01:14.062Z,5.12
2019-03-25T10:03:46.689Z,6.90
2019-03-25T10:06:16.393Z,4.25
2019-03-25T10:08:46.877Z,3.52
2019-03-25T10:11:15.966Z,5.42
2019-03-25T10:13:47.849Z,6.53
2019-03-25T10:16:20.775Z,4.85
2019-03-25T10:18:49.886Z,3.25
2019-03-25T10:21:22.361Z,7.42
2019-03-25T10:23:51.492Z,3.25
2019-03-25T10:26:21.094Z,4.03
2019-03-25T10:28:54.185Z,3.65
2019-03-25T10:31:23.250Z,3.95
2019-03-25T10:33:53.149Z,5.12
2019-03-25T10:36:23.543Z,2.95
2019-03-25T10:38:53.796Z,4.08
2019-03-25T10:41:23.507Z,2.30
2019-03-25T10:43:56.192Z,3.77
2019-03-25T10:46:25.948Z,3.00
2019-03-25T10:48:58.867Z,4.05
2019-03-25T10:51:28.293Z,4.40
2019-03-25T10:53:57.391Z,4.65
2019-03-25T10:56:26.496Z,10.68
2019-03-25T10:58:58.312Z,8.65
2019-03-25T11:01:28.437Z,5.47
2019-03-25T11:03:58.321Z,7.17
2019-03-25T11:06:27.469Z,4.60
2019-03-25T11:08:57.278Z,3.70
2019-03-25T11:11:32.535Z,6.30
2019-03-25T11:14:02.302Z,8.40
2019-03-25T11:16:31.885Z,4.55
2019-03-25T11:19:01.887Z,8.40
2019-03-25T11:21:31.008Z,5.85
2019-03-25T11:24:03.543Z,4.87
2019-03-25T11:26:32.959Z,4.87
2019-03-25T11:29:08.328Z,8.08
2019-03-25T11:31:36.456Z,3.17
2019-03-25T11:34:06.949Z,6.00
2019-03-25T11:36:36.057Z,2.35
2019-03-25T11:39:07.626Z,5.72
2019-03-25T11:41:36.733Z,5.55
2019-03-25T11:44:06.542Z,5.30
2019-03-25T11:46:37.696Z,2.50
2019-03-25T11:49:10.857Z,4.03
2019-03-25T11:51:39.933Z,2.60
2019-03-25T11:54:09.127Z,3.27
2019-03-25T11:56:41.789Z,6.37
2019-03-25T11:59:18.616Z,4.17
2019-03-25T12:01:42.614Z,9.43
2019-03-25T12:04:12.017Z,4.28
2019-03-25T12:06:44.771Z,7.17
2019-03-25T12:09:17.212Z,5.47
2019-03-25T12:11:46.423Z,3.12
2019-03-25T12:14:16.688Z,2.12
2019-03-25T12:16:49.143Z,4.10
2019-03-25T12:19:20.725Z,2.90
2019-03-25T12:21:50.414Z,3.47
2019-03-25T12:24:19.817Z,5.37
2019-03-25T12:26:52.257Z,6.37
2019-03-25T12:29:36.061Z,2.20
2019-03-25T12:32:01.581Z,9.25
2019-03-25T12:34:31.880Z,4.95
2019-03-25T12:37:01.094Z,4.05
2019-03-25T12:39:33.273Z,6.17
2019-03-25T12:42:02.398Z,2.47
2019-03-25T12:44:35.154Z,4.85
2019-03-25T12:47:04.660Z,9.77
2019-03-25T12:49:37.528Z,3.55
2019-03-25T12:52:06.630Z,3.43
2019-03-25T12:54:36.439Z,7.75
2019-03-25T12:57:07.320Z,7.35
2019-03-25T12:59:41.320Z,6.67
2019-03-25T13:02:08.045Z,8.13
2019-03-25T13:04:37.878Z,6.47
2019-03-25T13:07:06.989Z,4.60
2019-03-25T13:09:36.747Z,5.28
2019-03-25T13:12:05.877Z,9.90
2019-03-25T13:14:35.284Z,5.15
2019-03-25T13:17:04.518Z,6.85
2019-03-25T13:19:33.625Z,5.37
2019-03-25T13:22:03.048Z,2.27
2019-03-25T13:24:32.135Z,3.17
2019-03-25T13:27:01.249Z,1.42
2019-03-25T13:29:33.070Z,2.83
2019-03-25T13:32:02.834Z,3.02
2019-03-25T13:34:35.227Z,3.08
2019-03-25T13:37:04.329Z,1.00
2019-03-25T13:39:37.371Z,3.87
2019-03-25T13:42:06.477Z,1.35
2019-03-25T13:44:39.084Z,1.27
2019-03-25T13:47:08.865Z,4.08
2019-03-25T13:49:37.973Z,3.40
2019-03-25T13:52:08.723Z,8.63
2019-03-25T13:54:40.968Z,5.28
2019-03-25T13:57:12.525Z,3.17
2019-03-25T13:59:41.603Z,7.08
2019-03-25T14:02:11.937Z,5.50
2019-03-25T14:04:41.040Z,5.90
2019-03-25T14:07:13.742Z,10.35
2019-03-25T14:09:42.829Z,5.53
2019-03-25T14:12:15.353Z,13.45
2019-03-25T14:14:44.454Z,10.80
2019-03-25T14:17:17.189Z,6.65
2019-03-25T14:19:47.092Z,3.75
2019-03-25T14:22:16.719Z,6.83
2019-03-25T14:24:48.947Z,7.40
2019-03-25T14:27:18.063Z,2.25
2019-03-25T14:29:49.823Z,3.12
2019-03-25T14:32:22.655Z,2.67
2019-03-25T14:34:51.973Z,3.07
2019-03-25T14:37:21.443Z,4.10
2019-03-25T14:39:51.186Z,5.60
2019-03-25T14:42:20.334Z,3.05
2019-03-25T14:44:49.400Z,4.10
2019-03-25T14:47:18.539Z,3.35
2019-03-25T14:49:47.630Z,5.25
2019-03-25T14:52:16.752Z,3.50
2019-03-25T14:54:46.220Z,4.80
2019-03-25T14:57:17.274Z,7.80
2019-03-25T14:59:46.372Z,5.47
2019-03-25T15:02:19.260Z,7.45
2019-03-25T15:04:48.371Z,10.85
2019-03-25T15:07:21.225Z,9.88
2019-03-25T15:09:50.324Z,4.53
2019-03-25T15:12:19.828Z,6.25
2019-03-25T15:14:49.681Z,8.88
2019-03-25T15:21:06.862Z,5.70
2019-03-25T15:24:20.316Z,5.95
2019-03-25T15:27:16.864Z,3.15
2019-03-25T15:30:17.968Z,3.92
2019-03-25T15:33:11.581Z,3.22
2019-03-25T15:36:16.559Z,5.67
2019-03-25T15:42:01.571Z,3.10
2019-03-25T15:44:30.989Z,2.60
2019-03-25T15:47:05.097Z,4.45
2019-03-25T15:49:34.924Z,6.75
2019-03-25T15:52:04.098Z,2.75
2019-03-25T15:54:33.502Z,7.22
2019-03-25T15:57:02.982Z,5.08
2019-03-25T15:59:35.473Z,3.95
2019-03-25T16:02:07.660Z,2.30
2019-03-25T16:04:36.783Z,3.98
2019-03-25T16:07:08.998Z,4.83
2019-03-25T16:09:38.297Z,2.17
2019-03-25T16:12:07.771Z,2.75
2019-03-25T16:14:36.914Z,4.08
2019-03-25T16:17:06.033Z,2.20
2019-03-25T16:19:35.473Z,7.10
2019-03-25T16:22:04.725Z,6.22
2019-03-25T16:24:33.852Z,1.75
2019-03-25T16:27:03.010Z,2.37
2019-03-25T16:29:32.128Z,2.20
2019-03-25T16:32:01.574Z,5.17
2019-03-25T16:34:34.093Z,3.92
2019-03-25T16:37:03.619Z,3.12
2019-03-25T16:39:36.241Z,4.92
2019-03-25T16:42:08.753Z,4.42
2019-03-25T16:44:40.578Z,2.40
2019-03-25T16:47:14.285Z,4.05
2019-03-25T16:49:46.989Z,4.35
2019-03-25T16:52:16.099Z,5.97
2019-03-25T16:54:45.492Z,3.90
2019-03-25T16:57:15.126Z,3.52
2019-03-25T16:59:44.488Z,1.90
2019-03-25T17:02:13.654Z,1.92
2019-03-25T17:04:43.194Z,4.70
2019-03-25T17:07:15.468Z,3.37
2019-03-25T17:09:44.696Z,1.67
2019-03-25T17:12:16.940Z,2.87
2019-03-25T17:14:51.585Z,10.82
2019-03-25T17:17:20.711Z,5.90
2019-03-25T17:19:50.602Z,4.42
2019-03-25T17:22:21.618Z,11.33
2019-03-25T17:24:51.464Z,10.10
2019-03-25T17:27:31.102Z,7.30
2019-03-25T17:30:06.757Z,7.35
2019-03-25T17:32:36.649Z,5.35
2019-03-25T17:35:09.616Z,5.08
2019-03-25T17:37:45.185Z,8.10
2019-03-25T17:40:21.033Z,8.25
2019-03-25T17:42:57.806Z,8.53
2019-03-25T17:45:27.232Z,11.08
2019-03-25T17:47:59.691Z,6.58
2019-03-25T17:50:33.933Z,8.33
2019-03-25T17:53:06.422Z,7.47
2019-03-25T17:55:35.656Z,7.40
2019-03-25T17:58:08.221Z,6.65
2019-03-25T18:01:14.270Z,6.35
2019-03-25T18:03:43.725Z,6.25
2019-03-25T18:06:12.860Z,13.30
2019-03-25T18:08:41.968Z,7.78
2019-03-25T18:11:14.961Z,8.73
2019-03-25T18:13:44.460Z,5.60
2019-03-25T18:16:16.684Z,9.65
2019-03-25T18:18:46.864Z,11.38
2019-03-25T18:21:16.270Z,7.58
2019-03-25T18:23:46.657Z,8.85
2019-03-25T18:26:16.358Z,8.28
2019-03-25T18:28:48.541Z,9.33
2019-03-25T18:31:18.649Z,12.03
2019-03-25T18:33:51.184Z,10.32
2019-03-25T18:36:23.687Z,13.30
2019-03-25T18:38:53.104Z,12.63
2019-03-25T18:41:22.991Z,15.03
2019-03-25T18:43:52.115Z,17.45
2019-03-25T18:46:21.578Z,9.80
2019-03-25T18:48:52.763Z,12.35
2019-03-25T18:51:21.906Z,15.03
2019-03-25T18:53:54.122Z,12.05
2019-03-25T18:56:26.328Z,19.95
2019-03-25T18:58:55.507Z,16.65
2019-03-25T19:01:24.662Z,13.15
2019-03-25T19:03:59.962Z,22.85
2019-03-25T19:06:34.959Z,9.10
2019-03-25T19:09:07.022Z,11.25
2019-03-25T19:11:36.527Z,10.85
2019-03-25T19:14:11.760Z,15.13
2019-03-25T19:16:41.271Z,13.22
2019-03-25T19:19:13.162Z,11.48
2019-03-25T19:21:46.123Z,13.98
2019-03-25T19:24:19.815Z,17.05
2019-03-25T19:29:20.427Z,16.65
2019-03-25T19:31:49.671Z,19.17
2019-03-25T19:34:21.922Z,10.88
2019-03-25T19:36:51.457Z,14.95
2019-03-25T19:39:20.526Z,14.53
2019-03-25T19:41:50.365Z,14.20
2019-03-25T19:44:19.505Z,14.80
2019-03-25T19:46:48.631Z,24.75
2019-03-25T19:49:18.425Z,18.45
2019-03-25T19:51:47.536Z,22.85
2019-03-25T19:54:16.660Z,23.85
2019-03-25T19:56:48.514Z,15.20
2019-03-25T19:59:18.302Z,17.10
2019-03-25T20:01:47.858Z,16.27
2019-03-25T20:04:17.264Z,19.35
2019-03-25T20:06:46.393Z,12.82
2019-03-25T20:09:15.508Z,16.17
2019-03-25T20:11:47.355Z,21.95
2019-03-25T20:14:16.431Z,13.30
2019-03-25T20:16:45.617Z,10.60
2019-03-25T20:19:14.666Z,14.55
2019-03-25T20:21:45.800Z,18.45
2019-03-25T20:24:15.765Z,17.15
2019-03-25T20:26:45.279Z,13.05
2019-03-25T20:29:14.667Z,14.30
2019-03-25T20:31:43.801Z,14.25
2019-03-25T20:34:13.231Z,25.15
2019-03-25T20:36:46.436Z,15.50
2019-03-25T20:39:15.566Z,16.55
2019-03-25T20:41:44.716Z,19.77
2019-03-25T20:44:14.652Z,22.42
2019-03-25T20:46:45.129Z,25.30
2019-03-25T20:49:16.629Z,17.10
2019-03-25T20:51:46.115Z,20.15
2019-03-25T20:54:15.223Z,23.32
2019-03-25T20:56:44.414Z,21.87
2019-03-25T20:59:16.314Z,21.12
2019-03-25T21:01:45.634Z,18.20
2019-03-25T21:04:14.742Z,26.35
2019-03-25T21:06:44.112Z,17.70
2019-03-25T21:09:13.616Z,14.23
2019-03-25T21:11:46.394Z,28.30
2019-03-25T21:14:15.496Z,18.00
2019-03-25T21:16:44.628Z,20.48
2019-03-25T21:19:15.140Z,24.95
2019-03-25T21:21:47.574Z,20.00
2019-03-25T21:24:19.187Z,20.57
2019-03-25T21:26:50.156Z,23.95
2019-03-25T21:29:19.571Z,32.45
2019-03-25T21:31:48.751Z,26.60
2019-03-25T21:34:18.038Z,22.20
2019-03-25T21:36:47.644Z,22.90
2019-03-25T21:39:16.807Z,22.60
2019-03-25T21:41:46.287Z,25.75
2019-03-25T21:44:17.587Z,25.60
2019-03-25T21:46:46.751Z,20.27
2019-03-25T21:49:16.424Z,22.62
2019-03-25T21:51:45.550Z,32.15
2019-03-25T21:54:14.683Z,21.17
2019-03-25T21:56:43.791Z,29.55
2019-03-25T21:59:12.921Z,27.90
2019-03-25T22:01:42.116Z,22.58
2019-03-25T22:04:14.766Z,24.43
2019-03-25T22:06:44.595Z,30.05
2019-03-25T22:09:14.480Z,28.07
2019-03-25T22:11:43.910Z,30.02
2019-03-25T22:14:13.731Z,33.10
2019-03-25T22:16:42.856Z,25.52
2019-03-25T22:19:16.019Z,32.17
2019-03-25T22:21:45.129Z,27.95
2019-03-25T22:24:14.591Z,28.55
2019-03-25T22:26:44.001Z,31.27
2019-03-25T22:29:13.333Z,30.88
2019-03-25T22:31:42.452Z,29.40
2019-03-25T22:34:14.973Z,29.07
2019-03-25T22:36:47.217Z,35.25
2019-03-25T22:39:16.392Z,31.48
2019-03-25T22:41:47.887Z,34.53
2019-03-25T22:44:16.996Z,35.48
2019-03-25T22:46:46.120Z,36.38
2019-03-25T22:49:21.634Z,33.23
2019-03-25T22:51:50.736Z,29.00
2019-03-25T22:54:22.675Z,31.90
2019-03-25T22:56:57.321Z,31.30
2019-03-25T22:59:29.728Z,31.97
2019-03-25T23:01:58.854Z,32.48
2019-03-25T23:04:29.258Z,37.40
2019-03-25T23:06:58.374Z,39.03
2019-03-25T23:09:27.837Z,42.55
2019-03-25T23:12:02.242Z,35.48
2019-03-25T23:14:32.099Z,48.15
2019-03-25T23:17:01.236Z,34.65
2019-03-25T23:19:30.710Z,32.17
2019-03-25T23:21:59.836Z,40.85
2019-03-25T23:24:32.029Z,37.28
2019-03-25T23:27:01.153Z,37.65
2019-03-25T23:29:31.931Z,46.77
2019-03-25T23:32:01.053Z,36.50
2019-03-25T23:34:31.846Z,47.40
2019-03-25T23:37:01.620Z,41.73
2019-03-25T23:39:34.183Z,46.95
2019-03-25T23:42:08.453Z,42.60
2019-03-25T23:44:41.322Z,43.68
2019-03-25T23:47:11.139Z,42.48
2019-03-25T23:49:40.310Z,45.67
2019-03-25T23:52:10.050Z,39.58
2019-03-25T23:54:39.167Z,48.73
2019-03-25T23:57:08.250Z,52.25
2019-03-25T23:59:37.731Z,49.93
